createdAt,value
2023-02-18T00:01:42.642Z,14.32
2023-02-18T00:04:10.176Z,12.65
2023-02-18T00:06:38.774Z,14.70
2023-02-18T00:09:06.728Z,13.27
2023-02-18T00:11:35.486Z,14.43
2023-02-18T00:14:04.343Z,13.82
2023-02-18T00:16:33.049Z,16.15
2023-02-18T00:19:02.943Z,14.52
2023-02-18T00:21:30.564Z,12.25
2023-02-18T00:23:57.886Z,14.00
2023-02-18T00:26:25.491Z,12.57
2023-02-18T00:28:53.080Z,15.45
2023-02-18T00:31:21.624Z,12.23
2023-02-18T00:33:50.274Z,13.07
2023-02-18T00:36:18.770Z,13.90
2023-02-18T00:38:46.651Z,14.02
2023-02-18T00:41:14.170Z,15.23
2023-02-18T00:43:41.541Z,13.48
2023-02-18T00:46:09.271Z,11.52
2023-02-18T00:48:37.170Z,11.80
2023-02-18T00:51:06.387Z,9.00
2023-02-18T00:53:33.862Z,11.70
2023-02-18T00:56:01.413Z,11.85
2023-02-18T00:58:28.746Z,10.65
2023-02-18T01:00:56.565Z,13.45
2023-02-18T01:03:24.729Z,11.13
2023-02-18T01:05:52.529Z,10.27
2023-02-18T01:08:22.099Z,8.75
2023-02-18T01:10:50.953Z,11.13
2023-02-18T01:13:18.544Z,12.35
2023-02-18T01:15:46.320Z,10.60
2023-02-18T01:18:14.326Z,9.98
2023-02-18T01:20:42.944Z,9.38
2023-02-18T01:23:10.465Z,10.70
2023-02-18T01:25:39.240Z,11.55
2023-02-18T01:28:07.224Z,9.07
2023-02-18T01:30:35.245Z,11.55
2023-02-18T01:33:02.601Z,9.90
2023-02-18T01:35:29.923Z,9.73
2023-02-18T01:37:57.193Z,9.05
2023-02-18T01:40:26.260Z,7.82
2023-02-18T01:42:54.954Z,10.23
2023-02-18T01:45:52.449Z,8.70
2023-02-18T01:48:22.296Z,13.10
2023-02-18T01:50:50.610Z,11.18
2023-02-18T01:53:19.549Z,12.10
2023-02-18T01:55:48.460Z,10.60
2023-02-18T01:58:17.535Z,11.05
2023-02-18T02:00:44.995Z,14.70
2023-02-18T02:03:12.385Z,11.07
2023-02-18T02:05:39.727Z,10.05
2023-02-18T02:08:07.502Z,12.88
2023-02-18T02:10:44.684Z,9.95
2023-02-18T02:13:15.057Z,10.32
2023-02-18T02:15:45.796Z,11.55
2023-02-18T02:18:25.603Z,11.23
2023-02-18T02:21:07.743Z,11.70
2023-02-18T02:23:41.206Z,12.73
2023-02-18T02:26:21.881Z,20.05
2023-02-18T02:29:02.043Z,14.63
2023-02-18T02:31:54.640Z,13.63
2023-02-18T02:34:40.295Z,16.42
2023-02-18T02:37:11.274Z,15.73
2023-02-18T02:39:42.944Z,12.60
2023-02-18T02:42:16.697Z,14.52
2023-02-18T02:44:48.427Z,21.83
2023-02-18T02:47:20.847Z,13.70
2023-02-18T02:49:54.518Z,14.60
2023-02-18T02:52:24.668Z,13.10
2023-02-18T02:54:52.681Z,13.88
2023-02-18T02:57:38.490Z,12.05
2023-02-18T03:00:09.946Z,11.82
2023-02-18T03:02:41.613Z,13.05
2023-02-18T03:05:15.241Z,11.60
2023-02-18T03:08:03.326Z,10.52
2023-02-18T03:10:37.519Z,9.15
2023-02-18T03:13:08.497Z,7.53
2023-02-18T03:15:39.403Z,6.65
2023-02-18T03:18:09.453Z,7.65
2023-02-18T03:20:40.352Z,8.02
2023-02-18T03:23:09.050Z,8.30
2023-02-18T03:25:38.573Z,8.35
2023-02-18T03:28:09.433Z,8.93
2023-02-18T03:30:38.986Z,8.02
2023-02-18T03:33:07.792Z,6.07
2023-02-18T03:35:36.330Z,7.07
2023-02-18T03:38:08.151Z,7.22
2023-02-18T03:40:35.502Z,7.25
2023-02-18T03:43:02.924Z,6.32
2023-02-18T03:45:30.225Z,5.43
2023-02-18T03:47:57.781Z,5.75
2023-02-18T03:50:25.172Z,4.57
2023-02-18T03:52:52.595Z,5.72
2023-02-18T03:55:21.272Z,3.70
2023-02-18T03:57:48.606Z,4.18
2023-02-18T04:00:16.415Z,4.78
2023-02-18T04:02:43.847Z,3.33
2023-02-18T04:05:11.346Z,3.42
2023-02-18T04:07:38.661Z,3.35
2023-02-18T04:10:06.558Z,2.95
2023-02-18T04:12:35.256Z,4.60
2023-02-18T04:15:02.622Z,3.40
2023-02-18T04:17:29.953Z,1.42
2023-02-18T04:19:57.250Z,3.38
2023-02-18T04:22:24.558Z,1.90
2023-02-18T04:24:51.893Z,2.17
2023-02-18T04:27:19.207Z,2.47
2023-02-18T04:29:48.000Z,2.42
2023-02-18T04:32:15.334Z,3.17
2023-02-18T04:34:42.768Z,2.33
2023-02-18T04:37:10.082Z,1.40
2023-02-18T04:39:37.415Z,2.97
2023-02-18T04:42:08.693Z,1.60
2023-02-18T04:44:36.194Z,2.10
2023-02-18T04:47:04.991Z,3.10
2023-02-18T04:49:32.314Z,1.42
2023-02-18T04:51:59.824Z,4.15
2023-02-18T04:54:27.126Z,1.60
2023-02-18T04:56:54.503Z,2.85
2023-02-18T04:59:21.847Z,2.55
2023-02-18T05:01:49.179Z,1.73
2023-02-18T05:04:18.406Z,2.30
2023-02-18T05:06:45.769Z,2.17
2023-02-18T05:09:13.126Z,3.30
2023-02-18T05:11:40.546Z,2.88
2023-02-18T05:14:07.814Z,2.70
2023-02-18T05:16:35.126Z,1.80
2023-02-18T05:19:02.567Z,3.25
2023-02-18T05:21:31.428Z,5.13
2023-02-18T05:23:58.742Z,4.78
2023-02-18T05:26:26.114Z,2.78
2023-02-18T05:28:53.392Z,5.22
2023-02-18T05:31:20.811Z,5.55
2023-02-18T05:33:48.205Z,4.65
2023-02-18T05:36:15.549Z,5.25
2023-02-18T05:38:44.218Z,5.45
2023-02-18T05:41:11.562Z,6.00
2023-02-18T05:43:52.835Z,4.38
2023-02-18T05:46:20.283Z,5.07
2023-02-18T05:48:47.707Z,3.75
2023-02-18T05:51:15.330Z,3.85
2023-02-18T05:53:44.187Z,4.38
2023-02-18T05:56:11.512Z,4.47
2023-02-18T05:58:38.814Z,4.78
2023-02-18T06:01:06.134Z,4.82
2023-02-18T06:03:33.423Z,3.20
2023-02-18T06:06:00.789Z,3.90
2023-02-18T06:08:28.201Z,3.97
2023-02-18T06:11:00.583Z,3.75
2023-02-18T06:13:27.906Z,4.95
2023-02-18T06:15:55.671Z,3.60
2023-02-18T06:18:23.334Z,4.05
2023-02-18T06:20:50.683Z,4.03
2023-02-18T06:23:18.089Z,4.95
2023-02-18T06:25:45.582Z,4.20
2023-02-18T06:28:14.253Z,3.90
2023-02-18T06:30:41.674Z,3.00
2023-02-18T06:33:09.105Z,3.20
2023-02-18T06:35:36.474Z,2.08
2023-02-18T06:38:04.030Z,1.92
2023-02-18T06:40:31.363Z,2.28
2023-02-18T06:42:58.768Z,1.58
2023-02-18T06:45:43.500Z,1.27
2023-02-18T06:48:12.251Z,1.42
2023-02-18T06:50:40.552Z,1.70
2023-02-18T06:53:08.972Z,0.93
2023-02-18T06:55:36.332Z,0.90
2023-02-18T06:58:03.790Z,0.95
2023-02-18T07:00:31.556Z,1.20
2023-02-18T07:02:59.066Z,1.23
2023-02-18T07:05:28.140Z,1.00
2023-02-18T07:07:55.676Z,1.13
2023-02-18T07:10:23.044Z,2.05
2023-02-18T07:12:50.692Z,1.40
2023-02-18T07:15:18.249Z,1.40
2023-02-18T07:17:45.510Z,1.60
2023-02-18T07:20:13.181Z,1.23
2023-02-18T07:22:41.836Z,1.13
2023-02-18T07:25:09.365Z,1.40
2023-02-18T07:27:36.640Z,1.38
2023-02-18T07:30:04.296Z,1.58
2023-02-18T07:32:31.618Z,1.88
2023-02-18T07:34:58.918Z,1.45
2023-02-18T07:37:26.211Z,1.30
2023-02-18T07:39:54.873Z,2.15
2023-02-18T07:42:22.298Z,2.47
2023-02-18T07:44:49.622Z,2.70
2023-02-18T07:47:19.527Z,0.98
2023-02-18T07:49:46.929Z,1.85
2023-02-18T07:52:14.198Z,1.83
2023-02-18T07:54:41.557Z,2.72
2023-02-18T07:57:10.497Z,1.70
2023-02-18T07:59:37.771Z,2.05
2023-02-18T08:02:05.320Z,1.30
2023-02-18T08:04:32.683Z,3.10
2023-02-18T08:07:00.020Z,3.47
2023-02-18T08:09:27.350Z,3.33
2023-02-18T08:11:54.679Z,6.38
2023-02-18T08:14:23.401Z,6.82
2023-02-18T08:16:51.008Z,7.00
2023-02-18T08:19:18.362Z,5.20
2023-02-18T08:21:45.852Z,6.88
2023-02-18T08:24:13.163Z,8.95
2023-02-18T08:26:48.709Z,12.32
2023-02-18T08:29:26.819Z,9.10
2023-02-18T08:31:55.091Z,6.55
2023-02-18T08:34:22.496Z,7.05
2023-02-18T08:36:49.787Z,7.30
2023-02-18T08:39:17.147Z,8.80
2023-02-18T08:41:44.507Z,10.20
2023-02-18T08:44:11.835Z,8.10
2023-02-18T08:46:40.511Z,4.70
2023-02-18T08:49:07.902Z,7.47
2023-02-18T08:51:35.399Z,9.10
2023-02-18T08:54:04.434Z,9.98
2023-02-18T08:56:32.443Z,4.70
2023-02-18T08:58:59.785Z,12.10
2023-02-18T09:01:27.300Z,5.78
2023-02-18T09:03:56.033Z,9.00
2023-02-18T09:06:23.713Z,9.60
2023-02-18T09:08:51.039Z,8.48
2023-02-18T09:11:19.459Z,13.77
2023-02-18T09:13:46.974Z,17.73
2023-02-18T09:16:15.693Z,7.15
2023-02-18T09:18:43.099Z,8.02
2023-02-18T09:21:13.132Z,8.65
2023-02-18T09:23:41.206Z,11.43
2023-02-18T09:26:09.904Z,7.82
2023-02-18T09:28:37.754Z,13.57
2023-02-18T09:31:06.200Z,7.72
2023-02-18T09:33:35.477Z,10.23
2023-02-18T09:36:02.818Z,8.60
2023-02-18T09:38:31.516Z,6.97
2023-02-18T09:41:01.000Z,9.93
2023-02-18T09:43:30.191Z,7.57
2023-02-18T09:45:57.568Z,8.57
2023-02-18T09:48:27.591Z,8.05
2023-02-18T09:50:55.197Z,12.27
2023-02-18T09:53:23.659Z,16.70
2023-02-18T09:55:53.720Z,7.47
2023-02-18T09:58:21.889Z,4.47
2023-02-18T10:00:50.914Z,8.95
2023-02-18T10:03:19.106Z,7.20
2023-02-18T10:05:50.882Z,8.90
2023-02-18T10:08:20.762Z,10.15
2023-02-18T10:10:48.186Z,8.20
2023-02-18T10:13:18.429Z,7.55
2023-02-18T10:15:46.650Z,7.97
2023-02-18T10:18:20.457Z,10.98
2023-02-18T10:20:48.596Z,8.32
2023-02-18T10:23:16.426Z,8.93
2023-02-18T10:25:45.791Z,7.45
2023-02-18T10:28:13.337Z,10.30
2023-02-18T10:30:43.788Z,13.65
2023-02-18T10:33:23.344Z,12.15
2023-02-18T10:35:53.756Z,5.97
2023-02-18T10:38:25.815Z,9.38
2023-02-18T10:40:59.945Z,5.25
2023-02-18T10:43:33.665Z,10.15
2023-02-18T10:46:05.167Z,7.78
2023-02-18T10:48:40.578Z,10.23
2023-02-18T10:51:15.989Z,8.10
2023-02-18T10:53:44.784Z,8.27
2023-02-18T10:56:32.322Z,11.10
2023-02-18T10:59:02.619Z,9.02
2023-02-18T11:01:32.249Z,16.83
2023-02-18T11:04:07.767Z,16.83
2023-02-18T11:06:38.796Z,14.00
2023-02-18T11:09:06.841Z,12.13
2023-02-18T11:11:35.242Z,5.80
2023-02-18T11:14:03.112Z,8.10
2023-02-18T11:16:39.275Z,9.25
2023-02-18T11:19:06.593Z,10.63
2023-02-18T11:21:36.043Z,9.25
2023-02-18T11:24:08.030Z,4.05
2023-02-18T11:26:36.893Z,13.27
2023-02-18T11:29:06.869Z,7.65
2023-02-18T11:31:41.800Z,4.32
2023-02-18T11:34:15.700Z,3.85
2023-02-18T11:36:43.227Z,4.40
2023-02-18T11:39:18.210Z,4.80
2023-02-18T11:41:48.555Z,5.25
2023-02-18T11:44:20.424Z,3.90
2023-02-18T11:46:58.927Z,7.65
2023-02-18T11:49:26.412Z,6.40
2023-02-18T11:51:53.872Z,3.22
2023-02-18T11:54:25.841Z,4.43
2023-02-18T11:56:57.195Z,4.88
2023-02-18T11:59:24.675Z,3.92
2023-02-18T12:01:53.022Z,5.90
2023-02-18T12:04:27.336Z,4.55
2023-02-18T12:07:01.960Z,5.22
2023-02-18T12:09:30.575Z,4.65
2023-02-18T12:12:00.246Z,6.88
2023-02-18T12:14:28.085Z,6.10
2023-02-18T12:17:05.185Z,7.65
2023-02-18T12:19:43.725Z,5.30
2023-02-18T12:22:14.838Z,5.72
2023-02-18T12:24:48.361Z,8.68
2023-02-18T12:27:19.253Z,5.35
2023-02-18T12:30:01.120Z,4.82
2023-02-18T12:32:42.864Z,4.82
2023-02-18T12:35:29.011Z,10.48
2023-02-18T12:38:06.562Z,7.30
2023-02-18T12:40:49.648Z,4.22
2023-02-18T12:43:23.352Z,7.47
2023-02-18T12:45:58.138Z,8.93
2023-02-18T12:51:10.861Z,7.75
2023-02-18T12:53:51.850Z,5.60
2023-02-18T12:56:40.197Z,4.70
2023-02-18T12:59:13.128Z,5.93
2023-02-18T13:01:45.002Z,3.22
2023-02-18T13:04:20.530Z,6.82
2023-02-18T13:07:09.620Z,6.32
2023-02-18T13:09:45.127Z,5.43
2023-02-18T13:12:15.865Z,6.00
2023-02-18T13:14:47.319Z,5.35
2023-02-18T13:17:16.698Z,6.57
2023-02-18T13:19:47.353Z,7.25
2023-02-18T13:22:16.393Z,6.40
2023-02-18T13:24:46.694Z,5.75
2023-02-18T13:27:18.448Z,8.27
2023-02-18T13:29:48.052Z,5.20
2023-02-18T13:32:19.495Z,6.60
2023-02-18T13:34:49.430Z,4.50
2023-02-18T13:37:21.230Z,5.75
2023-02-18T13:39:51.164Z,9.38
2023-02-18T13:42:33.751Z,4.35
2023-02-18T13:45:18.971Z,4.25
2023-02-18T13:50:27.572Z,5.60
2023-02-18T13:52:59.551Z,12.40
2023-02-18T13:55:35.512Z,4.97
2023-02-18T13:58:02.905Z,5.70
2023-02-18T14:00:36.809Z,4.22
2023-02-18T14:03:19.841Z,4.50
2023-02-18T14:05:47.254Z,3.58
2023-02-18T14:08:15.223Z,3.38
2023-02-18T14:11:03.897Z,4.18
2023-02-18T14:13:40.404Z,7.30
2023-02-18T14:16:08.110Z,3.22
2023-02-18T14:18:50.318Z,4.40
2023-02-18T14:21:22.571Z,4.28
2023-02-18T14:23:57.613Z,2.50
2023-02-18T14:26:29.406Z,2.92
2023-02-18T14:28:59.699Z,4.50
2023-02-18T14:31:44.914Z,2.58
2023-02-18T14:34:42.626Z,3.03
2023-02-18T14:37:28.993Z,2.40
2023-02-18T14:39:59.930Z,4.57
2023-02-18T14:42:35.870Z,2.03
2023-02-18T14:45:15.426Z,2.50
2023-02-18T14:47:51.523Z,2.20
2023-02-18T14:50:19.546Z,4.47
2023-02-18T14:52:49.229Z,6.72
2023-02-18T14:55:18.516Z,2.53
2023-02-18T14:57:49.279Z,2.80
2023-02-18T15:00:17.701Z,4.40
2023-02-18T15:02:45.059Z,3.08
2023-02-18T15:05:13.942Z,4.15
2023-02-18T15:07:41.474Z,5.43
2023-02-18T15:10:14.654Z,4.13
2023-02-18T15:12:42.120Z,4.03
2023-02-18T15:15:14.708Z,3.03
2023-02-18T15:17:45.689Z,3.38
2023-02-18T15:20:13.338Z,3.85
2023-02-18T15:22:40.879Z,3.17
2023-02-18T15:25:11.226Z,3.40
2023-02-18T15:27:40.050Z,3.08
2023-02-18T15:30:17.640Z,3.05
2023-02-18T15:32:46.852Z,3.55
2023-02-18T15:35:16.182Z,3.53
2023-02-18T15:37:45.598Z,4.13
2023-02-18T15:40:13.968Z,3.25
2023-02-18T15:42:41.300Z,2.67
2023-02-18T15:45:16.785Z,4.05
2023-02-18T15:47:46.715Z,3.40
2023-02-18T15:50:18.101Z,3.63
2023-02-18T15:52:45.546Z,4.78
2023-02-18T15:55:14.744Z,2.72
2023-02-18T15:57:42.959Z,4.50
2023-02-18T16:00:15.167Z,2.60
2023-02-18T16:02:53.321Z,5.00
2023-02-18T16:05:25.032Z,4.45
2023-02-18T16:07:53.695Z,3.03
2023-02-18T16:10:22.175Z,3.70
2023-02-18T16:12:52.456Z,4.47
2023-02-18T16:15:24.314Z,4.25
2023-02-18T16:17:53.073Z,3.90
2023-02-18T16:20:27.143Z,3.20
2023-02-18T16:22:55.640Z,5.10
2023-02-18T16:25:24.254Z,3.63
2023-02-18T16:27:52.972Z,3.83
2023-02-18T16:30:22.058Z,3.90
2023-02-18T16:32:50.010Z,4.68
2023-02-18T16:35:19.073Z,4.68
2023-02-18T16:37:47.907Z,3.70
2023-02-18T16:40:24.805Z,2.67
2023-02-18T16:42:52.454Z,5.30
2023-02-18T16:45:19.924Z,4.13
2023-02-18T16:47:48.223Z,4.72
2023-02-18T16:50:17.908Z,7.07
2023-02-18T16:52:47.191Z,5.32
2023-02-18T16:55:18.123Z,4.18
2023-02-18T16:57:48.048Z,8.18
2023-02-18T17:00:16.583Z,6.90
2023-02-18T17:02:44.478Z,6.90
2023-02-18T17:05:26.024Z,5.25
2023-02-18T17:07:55.909Z,5.88
2023-02-18T17:10:23.672Z,8.45
2023-02-18T17:12:51.029Z,6.95
2023-02-18T17:15:24.622Z,5.10
2023-02-18T17:17:51.915Z,6.25
2023-02-18T17:20:19.401Z,6.68
2023-02-18T17:22:46.777Z,10.38
2023-02-18T17:25:20.396Z,7.75
2023-02-18T17:27:48.197Z,9.25
2023-02-18T17:30:16.161Z,8.90
2023-02-18T17:32:43.762Z,5.50
2023-02-18T17:35:15.860Z,5.70
2023-02-18T17:37:43.625Z,5.53
2023-02-18T17:40:14.049Z,7.60
2023-02-18T17:42:43.094Z,8.75
2023-02-18T17:45:17.582Z,8.43
2023-02-18T17:50:12.562Z,10.70
2023-02-18T17:52:39.867Z,9.52
2023-02-18T17:55:15.879Z,10.20
2023-02-18T17:57:45.730Z,8.35
2023-02-18T18:00:13.746Z,12.70
2023-02-18T18:02:41.050Z,11.68
2023-02-18T18:05:14.323Z,14.52
2023-02-18T18:07:41.621Z,14.48
2023-02-18T18:10:10.291Z,12.80
2023-02-18T18:12:37.644Z,12.52
2023-02-18T18:15:14.616Z,15.88
2023-02-18T18:17:42.042Z,11.45
2023-02-18T18:20:09.735Z,11.15
2023-02-18T18:22:37.046Z,12.43
2023-02-18T18:25:10.802Z,9.20
2023-02-18T18:27:39.844Z,13.80
2023-02-18T18:30:09.946Z,8.40
2023-02-18T18:32:37.311Z,10.38
2023-02-18T18:35:04.945Z,10.50
2023-02-18T18:37:32.425Z,9.35
2023-02-18T18:40:00.046Z,12.10
2023-02-18T18:42:27.314Z,11.13
2023-02-18T18:44:54.713Z,12.43
2023-02-18T18:47:23.462Z,12.77
2023-02-18T18:49:51.103Z,10.18
2023-02-18T18:52:19.247Z,9.07
2023-02-18T18:54:46.535Z,12.15
2023-02-18T18:57:14.004Z,11.13
2023-02-18T18:59:41.337Z,8.35
2023-02-18T19:02:14.549Z,8.85
2023-02-18T19:04:43.210Z,9.70
2023-02-18T19:07:10.515Z,8.07
2023-02-18T19:09:38.075Z,8.05
2023-02-18T19:12:05.699Z,8.95
2023-02-18T19:14:33.439Z,8.93
2023-02-18T19:17:00.796Z,9.18
2023-02-18T19:19:28.776Z,8.32
2023-02-18T19:21:57.406Z,8.75
2023-02-18T19:24:24.832Z,10.00
2023-02-18T19:26:52.209Z,9.48
2023-02-18T19:29:23.164Z,10.15
2023-02-18T19:31:50.864Z,7.95
2023-02-18T19:34:18.218Z,11.65
2023-02-18T19:36:46.546Z,10.02
2023-02-18T19:39:15.218Z,8.32
2023-02-18T19:41:42.649Z,52.10
2023-02-18T19:44:10.079Z,7.70
2023-02-18T19:46:37.500Z,10.00
2023-02-18T19:49:04.800Z,9.40
2023-02-18T19:51:32.117Z,7.70
2023-02-18T19:53:59.408Z,9.50
2023-02-18T19:56:28.039Z,8.77
2023-02-18T19:58:56.057Z,11.02
2023-02-18T20:01:23.433Z,9.23
2023-02-18T20:03:50.741Z,12.35
2023-02-18T20:06:18.880Z,9.32
2023-02-18T20:08:46.592Z,8.52
2023-02-18T20:11:13.948Z,9.43
2023-02-18T20:13:42.739Z,8.38
2023-02-18T20:16:10.604Z,13.07
2023-02-18T20:18:38.146Z,9.43
2023-02-18T20:21:06.108Z,7.78
2023-02-18T20:23:33.589Z,8.07
2023-02-18T20:26:03.990Z,7.97
2023-02-18T20:28:31.359Z,7.65
2023-02-18T20:31:06.121Z,7.60
2023-02-18T20:36:02.470Z,7.68
2023-02-18T20:38:29.753Z,10.18
2023-02-18T20:40:57.114Z,8.85
2023-02-18T20:43:26.091Z,8.00
2023-02-18T20:45:53.354Z,6.47
2023-02-18T20:48:21.983Z,9.13
2023-02-18T20:50:49.290Z,7.18
2023-02-18T20:53:16.586Z,7.32
2023-02-18T20:55:47.155Z,7.05
2023-02-18T20:58:14.486Z,8.07
2023-02-18T21:00:41.933Z,7.60
2023-02-18T21:03:09.444Z,8.02
2023-02-18T21:05:38.203Z,5.43
2023-02-18T21:08:05.603Z,6.65
2023-02-18T21:10:32.909Z,8.60
2023-02-18T21:13:00.245Z,6.05
2023-02-18T21:15:27.891Z,5.97
2023-02-18T21:17:55.195Z,5.28
2023-02-18T21:20:22.569Z,5.40
2023-02-18T21:22:51.951Z,4.70
2023-02-18T21:25:19.321Z,4.63
2023-02-18T21:27:46.638Z,5.03
2023-02-18T21:30:14.276Z,6.25
2023-02-18T21:32:41.696Z,5.30
2023-02-18T21:35:09.198Z,5.85
2023-02-18T21:37:36.845Z,6.10
2023-02-18T21:40:05.730Z,5.25
2023-02-18T21:42:34.513Z,5.32
2023-02-18T21:45:02.879Z,5.38
2023-02-18T21:47:30.184Z,4.95
2023-02-18T21:49:57.747Z,5.40
2023-02-18T21:52:26.930Z,5.82
2023-02-18T21:54:54.206Z,6.40
2023-02-18T21:57:22.982Z,5.70
2023-02-18T21:59:50.287Z,4.43
2023-02-18T22:02:18.880Z,5.07
2023-02-18T22:04:46.534Z,5.03
2023-02-18T22:07:14.115Z,5.05
2023-02-18T22:09:41.629Z,5.22
2023-02-18T22:12:09.083Z,6.47
2023-02-18T22:14:37.687Z,6.53
2023-02-18T22:17:05.229Z,4.63
2023-02-18T22:19:32.682Z,5.50
2023-02-18T22:22:00.349Z,3.83
2023-02-18T22:24:27.653Z,6.55
2023-02-18T22:26:55.077Z,5.68
2023-02-18T22:29:23.032Z,4.50
2023-02-18T22:31:53.150Z,5.88
2023-02-18T22:34:20.926Z,5.43
2023-02-18T22:36:48.539Z,5.88
2023-02-18T22:39:16.804Z,8.52
2023-02-18T22:41:44.104Z,5.38
2023-02-18T22:44:12.737Z,6.82
2023-02-18T22:46:40.052Z,5.68
2023-02-18T22:49:09.141Z,7.22
2023-02-18T22:51:38.290Z,6.00
2023-02-18T22:54:06.120Z,7.60
2023-02-18T22:56:33.721Z,7.40
2023-02-18T22:59:01.023Z,6.85
2023-02-18T23:01:29.513Z,10.35
2023-02-18T23:03:57.394Z,8.15
2023-02-18T23:06:26.452Z,9.13
2023-02-18T23:08:54.455Z,9.55
2023-02-18T23:11:22.217Z,8.70
2023-02-18T23:14:10.242Z,8.55
2023-02-18T23:16:52.116Z,8.70
2023-02-18T23:19:19.413Z,8.35
2023-02-18T23:21:48.313Z,9.77
2023-02-18T23:24:15.747Z,9.07
2023-02-18T23:26:43.049Z,9.60
2023-02-18T23:29:10.770Z,9.57
2023-02-18T23:31:38.399Z,9.48
2023-02-18T23:34:06.962Z,10.10
2023-02-18T23:36:35.391Z,9.95
2023-02-18T23:39:05.361Z,10.98
2023-02-18T23:41:32.861Z,11.38
2023-02-18T23:44:00.141Z,11.23
2023-02-18T23:46:28.009Z,11.35
2023-02-18T23:48:55.334Z,10.18
2023-02-18T23:51:23.356Z,12.43
2023-02-18T23:53:51.206Z,10.93
2023-02-18T23:56:21.020Z,12.90
2023-02-18T23:58:52.094Z,13.13
